createdAt,value
2023-05-24T00:00:13.285Z,101672.81
2023-05-24T00:02:42.896Z,101671.94
2023-05-24T00:05:11.224Z,101665.13
2023-05-24T00:07:40.473Z,101673.84
2023-05-24T00:10:09.597Z,101668.41
2023-05-24T00:12:37.326Z,101666.84
2023-05-24T00:15:05.824Z,101671.88
2023-05-24T00:17:34.818Z,101666.63
2023-05-24T00:20:03.826Z,101664.81
2023-05-24T00:22:32.851Z,101670.88
2023-05-24T00:25:01.953Z,101664.00
2023-05-24T00:27:29.644Z,101660.59
2023-05-24T00:29:57.346Z,101657.97
2023-05-24T00:32:25.096Z,101657.28
2023-05-24T00:34:52.873Z,101656.59
2023-05-24T00:37:20.599Z,101661.75
2023-05-24T00:39:48.771Z,101657.38
2023-05-24T00:42:17.859Z,101651.50
2023-05-24T00:44:45.725Z,101647.84
2023-05-24T00:47:13.624Z,101654.91
2023-05-24T00:49:41.628Z,101651.44
2023-05-24T00:52:09.819Z,101650.56
2023-05-24T00:54:38.441Z,101651.50
2023-05-24T00:57:06.699Z,101649.78
2023-05-24T00:59:36.058Z,101650.56
2023-05-24T01:02:03.901Z,101654.22
2023-05-24T01:04:32.558Z,101653.22
2023-05-24T01:07:10.695Z,101658.41
2023-05-24T01:09:52.088Z,101657.34
2023-05-24T01:12:26.366Z,101663.50
2023-05-24T01:15:01.645Z,101665.88
2023-05-24T01:17:32.549Z,101662.00
2023-05-24T01:20:06.887Z,101653.44
2023-05-24T01:23:19.788Z,101657.94
2023-05-24T01:26:00.322Z,101647.84
2023-05-24T01:28:29.526Z,101654.59
2023-05-24T01:30:57.226Z,101649.25
2023-05-24T01:33:25.438Z,101647.38
2023-05-24T01:35:53.172Z,101649.06
2023-05-24T01:38:20.948Z,101643.94
2023-05-24T01:40:51.808Z,101649.00
2023-05-24T01:43:24.584Z,101648.78
2023-05-24T01:46:01.159Z,101646.06
2023-05-24T01:48:35.016Z,101640.38
2023-05-24T01:51:07.042Z,101629.84
2023-05-24T01:53:36.103Z,101630.00
2023-05-24T01:56:06.732Z,101628.44
2023-05-24T01:58:34.794Z,101637.13
2023-05-24T02:01:04.174Z,101625.22
2023-05-24T02:03:32.760Z,101626.13
2023-05-24T02:06:00.534Z,101626.41
2023-05-24T02:08:28.304Z,101622.09
2023-05-24T02:10:56.405Z,101616.34
2023-05-24T02:13:24.157Z,101623.41
2023-05-24T02:15:53.717Z,101630.44
2023-05-24T02:18:22.861Z,101635.50
2023-05-24T02:20:50.892Z,101630.19
2023-05-24T02:23:18.655Z,101623.28
2023-05-24T02:25:46.434Z,101627.00
2023-05-24T02:28:14.206Z,101633.91
2023-05-24T02:30:44.706Z,101627.81
2023-05-24T02:33:13.126Z,101628.59
2023-05-24T02:35:42.395Z,101626.06
2023-05-24T02:38:10.095Z,101628.69
2023-05-24T02:40:37.819Z,101633.91
2023-05-24T02:43:05.558Z,101627.84
2023-05-24T02:45:33.519Z,101631.25
2023-05-24T02:48:01.332Z,101638.19
2023-05-24T02:50:29.456Z,101634.63
2023-05-24T02:52:58.637Z,101636.34
2023-05-24T02:55:26.952Z,101638.06
2023-05-24T02:57:54.980Z,101636.19
2023-05-24T03:00:22.987Z,101632.56
2023-05-24T03:02:52.540Z,101641.16
2023-05-24T03:05:20.525Z,101638.13
2023-05-24T03:07:48.214Z,101641.34
2023-05-24T03:10:17.506Z,101635.00
2023-05-24T03:12:45.253Z,101630.72
2023-05-24T03:15:13.479Z,101631.88
2023-05-24T03:17:41.250Z,101626.78
2023-05-24T03:20:11.715Z,101631.72
2023-05-24T03:22:39.550Z,101614.66
2023-05-24T03:25:08.681Z,101619.81
2023-05-24T03:27:37.861Z,101617.94
2023-05-24T03:30:06.907Z,101622.34
2023-05-24T03:32:34.705Z,101628.06
2023-05-24T03:35:02.706Z,101625.16
2023-05-24T03:37:30.455Z,101629.47
2023-05-24T03:39:58.157Z,101624.81
2023-05-24T03:42:25.875Z,101625.59
2023-05-24T03:44:54.956Z,101635.66
2023-05-24T03:47:22.692Z,101637.94
2023-05-24T03:49:51.273Z,101640.31
2023-05-24T03:52:19.037Z,101629.63
2023-05-24T03:54:46.864Z,101639.94
2023-05-24T03:57:14.566Z,101635.63
2023-05-24T03:59:42.303Z,101642.47
2023-05-24T04:02:11.427Z,101639.66
2023-05-24T04:04:39.316Z,101636.94
2023-05-24T04:07:08.071Z,101642.00
2023-05-24T04:09:36.244Z,101638.84
2023-05-24T04:12:04.083Z,101639.66
2023-05-24T04:14:31.822Z,101638.63
2023-05-24T04:16:59.623Z,101641.19
2023-05-24T04:19:29.046Z,101635.75
2023-05-24T04:21:56.771Z,101637.84
2023-05-24T04:24:24.560Z,101640.38
2023-05-24T04:26:52.381Z,101630.00
2023-05-24T04:29:20.207Z,101627.16
2023-05-24T04:31:48.912Z,101624.25
2023-05-24T04:34:16.843Z,101623.34
2023-05-24T04:36:47.598Z,101635.19
2023-05-24T04:39:15.824Z,101628.06
2023-05-24T04:41:43.579Z,101633.38
2023-05-24T04:44:11.384Z,101635.38
2023-05-24T04:46:39.168Z,101640.22
2023-05-24T04:49:08.425Z,101635.00
2023-05-24T04:51:38.550Z,101630.19
2023-05-24T04:54:09.277Z,101629.84
2023-05-24T04:56:38.475Z,101630.56
2023-05-24T04:59:06.887Z,101638.66
2023-05-24T05:01:34.932Z,101644.13
2023-05-24T05:04:04.546Z,101644.91
2023-05-24T05:06:34.992Z,101646.63
2023-05-24T05:09:02.886Z,101654.59
2023-05-24T05:11:32.051Z,101648.59
2023-05-24T05:13:59.768Z,101655.25
2023-05-24T05:16:27.522Z,101638.75
2023-05-24T05:18:55.281Z,101648.81
2023-05-24T05:21:23.090Z,101646.78
2023-05-24T05:23:50.796Z,101652.69
2023-05-24T05:26:18.675Z,101652.19
2023-05-24T05:28:47.743Z,101651.50
2023-05-24T05:31:15.510Z,101647.91
2023-05-24T05:33:43.285Z,101649.91
2023-05-24T05:36:11.000Z,101645.97
2023-05-24T05:38:38.724Z,101648.34
2023-05-24T05:41:07.309Z,101656.03
2023-05-24T05:43:35.131Z,101658.53
2023-05-24T05:46:04.295Z,101666.13
2023-05-24T05:48:32.073Z,101661.72
2023-05-24T05:50:59.842Z,101670.97
2023-05-24T05:53:27.595Z,101674.50
2023-05-24T05:55:55.309Z,101662.63
2023-05-24T05:58:23.016Z,101664.34
2023-05-24T06:00:50.810Z,101658.47
2023-05-24T06:03:20.082Z,101665.25
2023-05-24T06:05:48.139Z,101668.91
2023-05-24T06:08:15.912Z,101657.69
2023-05-24T06:10:43.927Z,101669.44
2023-05-24T06:13:11.855Z,101646.50
2023-05-24T06:15:39.975Z,101674.31
2023-05-24T06:18:07.720Z,101665.06
2023-05-24T06:20:37.089Z,101674.28
2023-05-24T06:23:05.192Z,101675.97
2023-05-24T06:25:32.981Z,101671.06
2023-05-24T06:28:00.703Z,101652.88
2023-05-24T06:30:28.514Z,101665.09
2023-05-24T06:32:56.887Z,101674.22
2023-05-24T06:35:24.619Z,101664.00
2023-05-24T06:37:53.672Z,101676.72
2023-05-24T06:40:21.391Z,101681.16
2023-05-24T06:42:49.086Z,101668.06
2023-05-24T06:45:16.801Z,101657.13
2023-05-24T06:47:44.677Z,101663.69
2023-05-24T06:50:12.597Z,101663.53
2023-05-24T06:52:40.428Z,101664.09
2023-05-24T06:55:10.688Z,101681.22
2023-05-24T06:57:38.476Z,101667.75
2023-05-24T07:00:10.512Z,101691.72
2023-05-24T07:02:38.308Z,101682.13
2023-05-24T07:05:08.334Z,101684.56
2023-05-24T07:07:36.059Z,101677.88
2023-05-24T07:10:03.848Z,101656.78
2023-05-24T07:12:33.497Z,101676.00
2023-05-24T07:15:01.248Z,101701.59
2023-05-24T07:17:28.942Z,101703.81
2023-05-24T07:19:56.888Z,101683.66
2023-05-24T07:22:25.433Z,101678.94
2023-05-24T07:24:53.105Z,101674.63
2023-05-24T07:27:20.928Z,101683.56
2023-05-24T07:29:50.398Z,101704.75
2023-05-24T07:32:18.498Z,101678.06
2023-05-24T07:34:46.248Z,101680.50
2023-05-24T07:37:13.931Z,101692.72
2023-05-24T07:39:41.619Z,101677.88
2023-05-24T07:42:09.287Z,101679.00
2023-05-24T07:44:37.162Z,101693.53
2023-05-24T07:47:06.794Z,101693.59
2023-05-24T07:49:34.530Z,101686.00
2023-05-24T07:52:04.132Z,101670.56
2023-05-24T07:54:31.875Z,101686.28
2023-05-24T07:56:59.651Z,101686.44
2023-05-24T07:59:27.377Z,101703.69
2023-05-24T08:01:55.126Z,101697.13
2023-05-24T08:04:24.200Z,101697.28
2023-05-24T08:06:52.142Z,101672.75
2023-05-24T08:09:19.895Z,101674.66
2023-05-24T08:11:47.637Z,101693.22
2023-05-24T08:14:15.443Z,101682.78
2023-05-24T08:16:43.188Z,101669.28
2023-05-24T08:19:10.931Z,101679.44
2023-05-24T08:21:42.027Z,101667.88
2023-05-24T08:24:09.831Z,101690.78
2023-05-24T08:26:38.149Z,101682.16
2023-05-24T08:29:06.045Z,101683.72
2023-05-24T08:31:34.119Z,101694.28
2023-05-24T08:34:02.641Z,101675.50
2023-05-24T08:36:30.387Z,101688.03
2023-05-24T08:39:00.190Z,101697.59
2023-05-24T08:41:28.449Z,101678.16
2023-05-24T08:43:59.128Z,101700.13
2023-05-24T08:46:27.330Z,101683.06
2023-05-24T08:48:55.254Z,101675.56
2023-05-24T08:51:23.191Z,101677.50
2023-05-24T08:53:51.924Z,101701.00
2023-05-24T08:56:21.669Z,101689.16
2023-05-24T08:58:49.566Z,101682.13
2023-05-24T09:01:18.177Z,101695.25
2023-05-24T09:03:47.324Z,101689.66
2023-05-24T09:06:18.436Z,101697.09
2023-05-24T09:08:46.345Z,101704.69
2023-05-24T09:11:16.083Z,101690.50
2023-05-24T09:13:45.971Z,101697.81
2023-05-24T09:16:13.848Z,101693.16
2023-05-24T09:18:42.633Z,101689.72
2023-05-24T09:21:10.663Z,101709.13
2023-05-24T09:23:38.652Z,101693.25
2023-05-24T09:26:10.433Z,101711.59
2023-05-24T09:28:38.809Z,101703.97
2023-05-24T09:31:08.480Z,101708.75
2023-05-24T09:33:36.691Z,101714.88
2023-05-24T09:36:06.209Z,101720.31
2023-05-24T09:38:36.170Z,101712.38
2023-05-24T09:41:05.655Z,101709.53
2023-05-24T09:43:34.598Z,101702.09
2023-05-24T09:46:04.734Z,101703.50
2023-05-24T09:48:34.020Z,101694.72
2023-05-24T09:51:06.146Z,101708.16
2023-05-24T09:53:34.997Z,101699.59
2023-05-24T09:56:05.423Z,101707.41
2023-05-24T09:58:34.160Z,101687.31
2023-05-24T10:01:07.278Z,101708.00
2023-05-24T10:03:37.508Z,101711.75
2023-05-24T10:06:07.856Z,101694.19
2023-05-24T10:08:36.992Z,101712.44
2023-05-24T10:11:05.752Z,101711.31
2023-05-24T10:13:35.720Z,101698.06
2023-05-24T10:16:03.978Z,101703.69
2023-05-24T10:18:31.689Z,101720.31
2023-05-24T10:21:02.889Z,101714.34
2023-05-24T10:23:31.598Z,101724.78
2023-05-24T10:26:06.517Z,101735.28
2023-05-24T10:28:36.088Z,101719.47
2023-05-24T10:31:08.939Z,101721.19
2023-05-24T10:33:38.381Z,101735.22
2023-05-24T10:36:10.041Z,101730.50
2023-05-24T10:38:39.681Z,101725.69
2023-05-24T10:41:08.186Z,101706.53
2023-05-24T10:43:36.597Z,101725.84
2023-05-24T10:46:05.818Z,101731.19
2023-05-24T10:48:38.198Z,101715.44
2023-05-24T10:51:33.846Z,101715.81
2023-05-24T10:54:15.767Z,101722.44
2023-05-24T10:56:45.789Z,101712.69
2023-05-24T10:59:24.518Z,101714.91
2023-05-24T11:01:56.730Z,101712.00
2023-05-24T11:04:25.175Z,101703.81
2023-05-24T11:06:58.211Z,101705.84
2023-05-24T11:09:27.483Z,101704.91
2023-05-24T11:11:57.320Z,101715.09
2023-05-24T11:14:27.417Z,101715.03
2023-05-24T11:16:55.367Z,101714.31
2023-05-24T11:19:24.988Z,101717.94
2023-05-24T11:21:58.803Z,101732.59
2023-05-24T11:24:28.965Z,101716.16
2023-05-24T11:26:57.235Z,101734.94
2023-05-24T11:29:25.197Z,101707.00
2023-05-24T11:31:54.226Z,101714.03
2023-05-24T11:34:22.323Z,101707.78
2023-05-24T11:36:50.304Z,101712.31
2023-05-24T11:39:18.173Z,101701.53
2023-05-24T11:41:48.628Z,101704.28
2023-05-24T11:44:18.487Z,101693.50
2023-05-24T11:46:46.483Z,101691.63
2023-05-24T11:49:15.028Z,101726.56
2023-05-24T11:51:43.081Z,101698.38
2023-05-24T11:54:11.696Z,101710.69
2023-05-24T11:56:40.137Z,101740.56
2023-05-24T11:59:16.386Z,101708.16
2023-05-24T12:01:44.646Z,101696.59
2023-05-24T12:04:12.918Z,101712.69
2023-05-24T12:06:42.138Z,101703.38
2023-05-24T12:09:13.473Z,101709.28
2023-05-24T12:11:42.285Z,101698.41
2023-05-24T12:14:14.822Z,101713.34
2023-05-24T12:16:43.902Z,101695.78
2023-05-24T12:19:31.486Z,101703.97
2023-05-24T12:22:02.252Z,101700.75
2023-05-24T12:24:30.546Z,101686.22
2023-05-24T12:27:01.197Z,101687.63
2023-05-24T12:29:33.817Z,101689.78
2023-05-24T12:32:01.731Z,101703.19
2023-05-24T12:34:30.152Z,101718.09
2023-05-24T12:36:57.948Z,101679.75
2023-05-24T12:39:31.113Z,101684.13
2023-05-24T12:42:01.702Z,101695.22
2023-05-24T12:44:32.345Z,101672.94
2023-05-24T12:47:00.863Z,101675.22
2023-05-24T12:49:29.266Z,101675.13
2023-05-24T12:51:57.856Z,101670.28
2023-05-24T12:54:26.864Z,101667.75
2023-05-24T12:56:56.707Z,101686.03
2023-05-24T12:59:25.287Z,101692.00
2023-05-24T13:01:54.339Z,101681.44
2023-05-24T13:04:24.419Z,101689.91
2023-05-24T13:06:52.312Z,101676.31
2023-05-24T13:09:21.871Z,101683.16
2023-05-24T13:11:49.834Z,101680.78
2023-05-24T13:14:18.222Z,101685.94
2023-05-24T13:16:46.150Z,101667.34
2023-05-24T13:19:15.543Z,101665.88
2023-05-24T13:21:43.668Z,101675.34
2023-05-24T13:24:11.509Z,101674.44
2023-05-24T13:26:39.232Z,101682.88
2023-05-24T13:29:32.282Z,101671.75
2023-05-24T13:31:56.284Z,101674.75
2023-05-24T13:34:25.818Z,101668.72
2023-05-24T13:36:54.050Z,101658.31
2023-05-24T13:39:22.315Z,101679.84
2023-05-24T13:41:50.401Z,101667.22
2023-05-24T13:44:18.245Z,101655.31
2023-05-24T13:46:46.264Z,101666.09
2023-05-24T13:49:14.118Z,101676.56
2023-05-24T13:51:43.274Z,101672.28
2023-05-24T13:54:11.685Z,101681.34
2023-05-24T13:56:39.934Z,101677.19
2023-05-24T13:59:08.582Z,101670.63
2023-05-24T14:01:37.669Z,101657.97
2023-05-24T14:04:06.304Z,101660.50
2023-05-24T14:06:34.495Z,101671.09
2023-05-24T14:09:03.555Z,101691.09
2023-05-24T14:11:31.953Z,101673.38
2023-05-24T14:16:31.130Z,101675.31
2023-05-24T14:18:59.011Z,101680.53
2023-05-24T14:21:27.199Z,101668.25
2023-05-24T14:23:55.454Z,101688.47
2023-05-24T14:26:24.567Z,101680.69
2023-05-24T14:28:55.333Z,101685.06
2023-05-24T14:31:24.033Z,101693.88
2023-05-24T14:33:51.853Z,101688.63
2023-05-24T14:36:19.843Z,101658.91
2023-05-24T14:38:47.661Z,101676.31
2023-05-24T14:41:16.309Z,101685.00
2023-05-24T14:43:45.507Z,101705.13
2023-05-24T14:46:13.393Z,101688.97
2023-05-24T14:48:41.766Z,101699.53
2023-05-24T14:51:09.655Z,101688.06
2023-05-24T14:53:37.410Z,101695.53
2023-05-24T14:56:07.488Z,101691.81
2023-05-24T14:58:35.883Z,101685.28
2023-05-24T15:01:05.103Z,101690.41
2023-05-24T15:03:33.175Z,101688.09
2023-05-24T15:06:01.107Z,101702.56
2023-05-24T15:08:28.963Z,101690.97
2023-05-24T15:10:58.758Z,101700.25
2023-05-24T15:13:26.900Z,101706.00
2023-05-24T15:15:56.608Z,101691.34
2023-05-24T15:18:27.962Z,101699.66
2023-05-24T15:20:56.104Z,101694.66
2023-05-24T15:23:24.887Z,101722.84
2023-05-24T15:25:52.581Z,101715.59
2023-05-24T15:28:20.618Z,101727.88
2023-05-24T15:30:48.631Z,101695.63
2023-05-24T15:33:17.254Z,101698.44
2023-05-24T15:35:46.499Z,101698.50
2023-05-24T15:38:17.578Z,101719.16
2023-05-24T15:40:46.183Z,101706.84
2023-05-24T15:43:15.571Z,101702.59
2023-05-24T15:45:44.309Z,101697.09
2023-05-24T15:48:12.726Z,101701.78
2023-05-24T15:51:03.744Z,101698.38
2023-05-24T15:53:29.812Z,101685.53
2023-05-24T15:55:57.614Z,101717.47
2023-05-24T15:58:25.730Z,101695.19
2023-05-24T16:00:54.401Z,101699.63
2023-05-24T16:03:22.263Z,101692.50
2023-05-24T16:05:50.600Z,101695.94
2023-05-24T16:08:18.441Z,101693.09
2023-05-24T16:10:49.119Z,101688.53
2023-05-24T16:13:16.972Z,101699.69
2023-05-24T16:15:50.967Z,101685.22
2023-05-24T16:18:21.336Z,101680.88
2023-05-24T16:20:49.510Z,101682.41
2023-05-24T16:23:17.429Z,101685.31
2023-05-24T16:25:45.383Z,101675.41
2023-05-24T16:28:14.516Z,101681.31
2023-05-24T16:30:42.501Z,101674.47
2023-05-24T16:33:10.628Z,101660.44
2023-05-24T16:35:38.374Z,101667.63
2023-05-24T16:38:06.078Z,101676.63
2023-05-24T16:40:34.249Z,101672.94
2023-05-24T16:43:01.961Z,101674.94
2023-05-24T16:45:31.047Z,101673.72
2023-05-24T16:47:59.082Z,101666.50
2023-05-24T16:50:26.905Z,101660.78
2023-05-24T16:52:54.590Z,101664.69
2023-05-24T16:55:22.385Z,101662.22
2023-05-24T16:57:50.815Z,101669.69
2023-05-24T17:00:19.623Z,101657.00
2023-05-24T17:02:48.856Z,101659.88
2023-05-24T17:05:16.850Z,101670.31
2023-05-24T17:07:45.460Z,101685.66
2023-05-24T17:10:13.261Z,101684.75
2023-05-24T17:12:41.462Z,101672.50
2023-05-24T17:15:10.168Z,101659.53
2023-05-24T17:17:39.145Z,101655.06
2023-05-24T17:20:09.972Z,101674.28
2023-05-24T17:22:37.748Z,101681.16
2023-05-24T17:25:06.309Z,101674.06
2023-05-24T17:27:34.217Z,101652.13
2023-05-24T17:30:02.057Z,101663.38
2023-05-24T17:32:29.823Z,101662.84
2023-05-24T17:34:57.640Z,101663.38
2023-05-24T17:37:26.771Z,101661.47
2023-05-24T17:39:54.557Z,101670.06
2023-05-24T17:42:22.372Z,101658.44
2023-05-24T17:44:50.129Z,101673.16
2023-05-24T17:47:17.914Z,101683.91
2023-05-24T17:49:45.653Z,101687.16
2023-05-24T17:52:14.542Z,101682.25
2023-05-24T17:54:43.637Z,101687.56
2023-05-24T17:57:11.423Z,101686.28
2023-05-24T17:59:39.172Z,101684.56
2023-05-24T18:02:07.333Z,101688.50
2023-05-24T18:04:35.181Z,101688.34
2023-05-24T18:07:02.909Z,101685.78
2023-05-24T18:09:30.651Z,101711.75
2023-05-24T18:11:59.728Z,101709.09
2023-05-24T18:14:27.542Z,101693.91
2023-05-24T18:16:57.147Z,101695.28
2023-05-24T18:19:29.068Z,101691.91
2023-05-24T18:21:58.042Z,101686.03
2023-05-24T18:24:25.787Z,101692.00
2023-05-24T18:26:53.498Z,101690.59
2023-05-24T18:29:22.638Z,101694.34
2023-05-24T18:31:50.486Z,101697.78
2023-05-24T18:34:18.358Z,101697.06
2023-05-24T18:36:46.099Z,101701.75
2023-05-24T18:39:13.842Z,101699.03
2023-05-24T18:41:41.990Z,101694.75
2023-05-24T18:44:09.695Z,101703.81
2023-05-24T18:46:38.997Z,101708.09
2023-05-24T18:49:10.883Z,101707.88
2023-05-24T18:51:38.952Z,101703.97
2023-05-24T18:54:06.729Z,101705.34
2023-05-24T18:56:34.448Z,101706.13
2023-05-24T18:59:02.176Z,101703.03
2023-05-24T19:01:30.031Z,101707.41
2023-05-24T19:03:59.827Z,101708.81
2023-05-24T19:06:28.507Z,101703.59
2023-05-24T19:08:56.236Z,101708.19
2023-05-24T19:11:24.003Z,101704.75
2023-05-24T19:13:51.762Z,101714.19
2023-05-24T19:16:19.456Z,101711.25
2023-05-24T19:18:47.253Z,101717.13
2023-05-24T19:21:16.505Z,101713.88
2023-05-24T19:23:44.265Z,101726.03
2023-05-24T19:26:12.661Z,101729.31
2023-05-24T19:28:42.206Z,101726.34
2023-05-24T19:31:09.908Z,101728.47
2023-05-24T19:33:48.525Z,101727.72
2023-05-24T19:36:26.737Z,101730.63
2023-05-24T19:38:54.716Z,101736.66
2023-05-24T19:41:22.498Z,101730.09
2023-05-24T19:43:50.211Z,101740.47
2023-05-24T19:46:17.960Z,101736.00
2023-05-24T19:48:46.168Z,101742.53
2023-05-24T19:51:15.709Z,101742.44
2023-05-24T19:53:45.227Z,101753.00
2023-05-24T19:56:13.000Z,101750.13
2023-05-24T19:58:41.047Z,101757.50
2023-05-24T20:01:08.772Z,101752.72
2023-05-24T20:03:37.055Z,101754.78
2023-05-24T20:06:04.968Z,101764.63
2023-05-24T20:08:32.662Z,101767.72
2023-05-24T20:11:02.767Z,101763.38
2023-05-24T20:13:30.532Z,101758.16
2023-05-24T20:15:58.310Z,101772.75
2023-05-24T20:18:26.065Z,101781.53
2023-05-24T20:20:55.122Z,101772.69
2023-05-24T20:23:27.283Z,101772.34
2023-05-24T20:25:55.632Z,101783.09
2023-05-24T20:28:30.934Z,101782.97
2023-05-24T20:30:59.596Z,101775.38
2023-05-24T20:33:27.327Z,101777.63
2023-05-24T20:35:55.061Z,101779.91
2023-05-24T20:38:23.130Z,101791.13
2023-05-24T20:40:51.059Z,101782.16
2023-05-24T20:43:18.814Z,101803.59
2023-05-24T20:45:47.967Z,101799.19
2023-05-24T20:48:16.057Z,101798.50
2023-05-24T20:50:43.805Z,101808.81
2023-05-24T20:53:11.588Z,101814.84
2023-05-24T20:55:39.294Z,101810.72
2023-05-24T20:58:06.986Z,101810.91
2023-05-24T21:00:34.707Z,101815.28
2023-05-24T21:03:03.918Z,101815.28
2023-05-24T21:05:31.819Z,101817.91
2023-05-24T21:07:59.718Z,101816.13
2023-05-24T21:10:27.899Z,101818.13
2023-05-24T21:12:55.651Z,101819.38
2023-05-24T21:15:23.406Z,101817.16
2023-05-24T21:17:51.174Z,101826.63
2023-05-24T21:20:20.386Z,101815.63
2023-05-24T21:22:48.139Z,101823.53
2023-05-24T21:25:15.915Z,101834.91
2023-05-24T21:27:43.651Z,101835.75
2023-05-24T21:30:12.221Z,101836.50
2023-05-24T21:32:40.047Z,101838.56
2023-05-24T21:35:08.596Z,101841.91
2023-05-24T21:37:37.699Z,101835.91
2023-05-24T21:40:06.283Z,101838.66
2023-05-24T21:42:34.016Z,101835.22
2023-05-24T21:45:01.758Z,101839.66
2023-05-24T21:47:29.491Z,101852.53
2023-05-24T21:49:57.215Z,101838.72
2023-05-24T21:52:24.939Z,101832.25
2023-05-24T21:54:54.107Z,101846.53
2023-05-24T21:57:21.798Z,101845.78
2023-05-24T21:59:49.536Z,101854.44
2023-05-24T22:02:17.361Z,101849.97
2023-05-24T22:04:45.381Z,101851.75
2023-05-24T22:07:13.789Z,101850.19
2023-05-24T22:09:41.616Z,101856.22
2023-05-24T22:12:10.931Z,101860.47
2023-05-24T22:14:38.643Z,101865.56
2023-05-24T22:17:06.665Z,101857.50
2023-05-24T22:22:05.934Z,101861.22
2023-05-24T22:24:33.672Z,101864.72
2023-05-24T22:27:02.567Z,101862.06
2023-05-24T22:29:32.085Z,101869.50
2023-05-24T22:31:59.855Z,101877.78
2023-05-24T22:34:28.266Z,101866.75
2023-05-24T22:36:57.651Z,101868.69
2023-05-24T22:39:25.765Z,101871.25
2023-05-24T22:41:53.957Z,101873.78
2023-05-24T22:44:21.698Z,101864.38
2023-05-24T22:46:53.786Z,101871.75
2023-05-24T22:49:21.824Z,101867.25
2023-05-24T22:51:50.915Z,101874.28
2023-05-24T22:54:18.815Z,101880.47
2023-05-24T22:56:47.344Z,101877.22
2023-05-24T22:59:15.095Z,101869.22
2023-05-24T23:01:44.714Z,101875.66
2023-05-24T23:06:46.852Z,101879.94
2023-05-24T23:09:14.617Z,101886.69
2023-05-24T23:11:42.806Z,101881.38
2023-05-24T23:14:11.338Z,101884.38
2023-05-24T23:16:45.197Z,101888.50
2023-05-24T23:19:18.348Z,101904.22
2023-05-24T23:21:46.630Z,101896.31
2023-05-24T23:24:15.709Z,101900.66
2023-05-24T23:26:43.667Z,101901.56
2023-05-24T23:29:11.603Z,101891.09
2023-05-24T23:31:39.388Z,101886.16
2023-05-24T23:34:07.167Z,101886.25
2023-05-24T23:36:36.525Z,101890.69
2023-05-24T23:39:04.391Z,101882.91
2023-05-24T23:41:32.141Z,101885.53
2023-05-24T23:43:59.882Z,101879.56
2023-05-24T23:46:27.962Z,101884.09
2023-05-24T23:48:55.740Z,101884.31
2023-05-24T23:51:23.434Z,101883.59
2023-05-24T23:53:52.536Z,101878.47
2023-05-24T23:56:20.524Z,101884.69
2023-05-24T23:58:48.294Z,101877.78
